createdAt,value
2017-03-05T00:00:37.377Z,99.99
2017-03-05T00:01:46.863Z,99.99
2017-03-05T00:02:57.102Z,99.99
2017-03-05T00:04:06.564Z,99.99
2017-03-05T00:05:15.266Z,99.99
2017-03-05T00:06:25.132Z,99.99
2017-03-05T00:07:35.394Z,99.99
2017-03-05T00:08:44.478Z,99.99
2017-03-05T00:09:55.121Z,99.99
2017-03-05T00:11:04.972Z,99.99
2017-03-05T00:12:14.840Z,99.99
2017-03-05T00:13:24.323Z,99.99
2017-03-05T00:14:33.830Z,99.99
2017-03-05T00:15:42.920Z,99.99
2017-03-05T00:16:52.405Z,99.99
2017-03-05T00:18:02.675Z,99.99
2017-03-05T00:19:12.534Z,99.99
2017-03-05T00:20:22.400Z,99.99
2017-03-05T00:21:32.645Z,99.99
2017-03-05T00:22:41.348Z,99.99
2017-03-05T00:23:51.579Z,99.99
2017-03-05T00:25:01.117Z,99.99
2017-03-05T00:26:10.580Z,99.99
2017-03-05T00:27:20.045Z,99.99
2017-03-05T00:28:29.892Z,99.99
2017-03-05T00:29:39.388Z,99.99
2017-03-05T00:30:49.606Z,99.99
2017-03-05T00:31:59.478Z,99.99
2017-03-05T00:33:08.939Z,99.99
2017-03-05T00:34:18.035Z,99.99
2017-03-05T00:35:27.512Z,99.99
2017-03-05T00:36:36.618Z,99.99
2017-03-05T00:37:45.706Z,99.99
2017-03-05T00:38:54.418Z,99.99
2017-03-05T00:40:03.507Z,99.99
2017-03-05T00:41:12.974Z,99.99
2017-03-05T00:42:23.215Z,99.99
2017-03-05T00:43:31.916Z,99.99
2017-03-05T00:44:40.994Z,99.99
2017-03-05T00:45:50.860Z,99.99
2017-03-05T00:46:59.958Z,99.99
2017-03-05T00:48:10.251Z,99.99
2017-03-05T00:49:20.097Z,99.99
2017-03-05T00:50:29.565Z,99.99
2017-03-05T00:51:38.671Z,99.99
2017-03-05T00:52:48.119Z,99.99
2017-03-05T00:53:56.820Z,99.99
2017-03-05T00:55:05.920Z,99.99
2017-03-05T00:56:14.998Z,99.99
2017-03-05T00:57:24.088Z,99.99
2017-03-05T00:58:34.709Z,99.99
2017-03-05T00:59:44.184Z,99.99
2017-03-05T01:00:54.413Z,99.99
2017-03-05T01:02:03.533Z,99.99
2017-03-05T01:03:13.380Z,99.99
2017-03-05T01:04:22.862Z,99.99
2017-03-05T01:05:31.972Z,99.99
2017-03-05T01:06:41.845Z,99.99
2017-03-05T01:07:51.693Z,99.99
2017-03-05T01:09:01.169Z,99.99
2017-03-05T01:10:11.012Z,99.99
2017-03-05T01:11:20.862Z,99.99
2017-03-05T01:12:30.330Z,99.99
2017-03-05T01:13:39.813Z,99.99
2017-03-05T01:14:49.701Z,99.99
2017-03-05T01:15:58.408Z,99.99
2017-03-05T01:17:07.107Z,99.99
2017-03-05T01:18:16.210Z,99.99
2017-03-05T01:19:25.292Z,99.99
2017-03-05T01:20:34.755Z,99.99
2017-03-05T01:21:43.830Z,99.99
2017-03-05T01:22:53.304Z,99.99
2017-03-05T01:24:03.181Z,99.99
2017-03-05T01:25:12.649Z,99.99
2017-03-05T01:26:21.723Z,99.99
2017-03-05T01:27:30.814Z,99.99
2017-03-05T01:28:40.330Z,99.99
2017-03-05T01:29:50.561Z,99.99
2017-03-05T01:30:59.647Z,99.99
2017-03-05T01:32:08.748Z,99.99
2017-03-05T01:33:18.624Z,99.99
2017-03-05T01:34:27.747Z,99.99
2017-03-05T01:35:36.828Z,99.99
2017-03-05T01:36:45.919Z,99.99
2017-03-05T01:37:54.613Z,99.99
2017-03-05T01:39:04.858Z,99.99
2017-03-05T01:40:14.321Z,99.99
2017-03-05T01:41:23.411Z,99.99
2017-03-05T01:42:32.892Z,99.99
2017-03-05T01:43:43.167Z,99.99
2017-03-05T01:44:52.272Z,99.99
2017-03-05T01:46:01.755Z,99.99
2017-03-05T01:47:10.485Z,99.99
2017-03-05T01:48:19.589Z,99.99
2017-03-05T01:49:29.835Z,99.99
2017-03-05T01:50:38.943Z,99.99
2017-03-05T01:51:49.186Z,99.99
2017-03-05T01:52:59.794Z,99.99
2017-03-05T01:54:08.879Z,99.99
2017-03-05T01:55:18.734Z,99.99
2017-03-05T01:56:28.220Z,99.99
2017-03-05T01:57:37.699Z,99.99
2017-03-05T01:58:46.417Z,99.99
2017-03-05T01:59:55.885Z,99.99
2017-03-05T02:01:04.981Z,99.99
2017-03-05T02:02:14.458Z,99.99
2017-03-05T02:03:24.706Z,99.99
2017-03-05T02:04:34.177Z,99.99
2017-03-05T02:05:43.264Z,99.99
2017-03-05T02:06:53.515Z,99.58
2017-03-05T02:08:02.611Z,99.21
2017-03-05T02:09:12.482Z,99.02
2017-03-05T02:10:21.951Z,99.68
2017-03-05T02:11:31.427Z,99.68
2017-03-05T02:12:40.899Z,99.4
2017-03-05T02:13:51.124Z,98.92
2017-03-05T02:15:00.601Z,99.21
2017-03-05T02:16:09.675Z,99.11
2017-03-05T02:17:18.777Z,99.21
2017-03-05T02:18:28.253Z,99.02
2017-03-05T02:19:37.721Z,99.97
2017-03-05T02:20:47.581Z,99.87
2017-03-05T02:21:57.465Z,99.58
2017-03-05T02:23:06.977Z,99.49
2017-03-05T02:24:16.085Z,99.49
2017-03-05T02:25:25.927Z,99.58
2017-03-05T02:26:35.790Z,99.68
2017-03-05T02:27:46.021Z,98.64
2017-03-05T02:28:55.866Z,98.83
2017-03-05T02:30:05.320Z,98.26
2017-03-05T02:31:14.800Z,97.88
2017-03-05T02:32:24.275Z,97.69
2017-03-05T02:33:33.749Z,97.88
2017-03-05T02:34:43.228Z,97.78
2017-03-05T02:35:52.694Z,97.78
2017-03-05T02:37:02.554Z,97.22
2017-03-05T02:38:12.808Z,97.12
2017-03-05T02:39:23.038Z,97.12
2017-03-05T02:40:32.909Z,97.88
2017-03-05T02:41:42.369Z,97.97
2017-03-05T02:42:51.450Z,97.88
2017-03-05T02:44:00.546Z,97.97
2017-03-05T02:45:10.419Z,97.78
2017-03-05T02:46:19.111Z,97.12
2017-03-05T02:47:28.973Z,97.97
2017-03-05T02:48:38.837Z,98.35
2017-03-05T02:49:48.686Z,98.07
2017-03-05T02:50:58.152Z,97.97
2017-03-05T02:52:08.009Z,98.31
2017-03-05T02:53:17.858Z,98.31
2017-03-05T02:54:28.499Z,98.4
2017-03-05T02:55:37.980Z,98.12
2017-03-05T02:56:47.451Z,96.88
2017-03-05T02:57:57.300Z,96.26
2017-03-05T02:59:07.140Z,95.98
2017-03-05T03:00:16.207Z,95.89
2017-03-05T03:01:26.067Z,95.89
2017-03-05T03:02:36.333Z,95.6
2017-03-05T03:03:45.420Z,95.98
2017-03-05T03:04:55.297Z,96.17
2017-03-05T03:06:04.769Z,95.12
2017-03-05T03:07:14.233Z,95.6
2017-03-05T03:08:22.954Z,95.6
2017-03-05T03:09:32.800Z,95.41
2017-03-05T03:10:41.887Z,94.37
2017-03-05T03:11:50.990Z,94.37
2017-03-05T03:13:00.832Z,94.18
2017-03-05T03:14:10.711Z,95.41
2017-03-05T03:15:20.947Z,95.31
2017-03-05T03:16:30.407Z,95.41
2017-03-05T03:17:39.502Z,95.03
2017-03-05T03:18:49.748Z,95.31
2017-03-05T03:19:59.593Z,94.65
2017-03-05T03:21:09.435Z,95.22
2017-03-05T03:22:18.129Z,96.08
2017-03-05T03:23:28.748Z,96.22
2017-03-05T03:24:38.215Z,95.46
2017-03-05T03:25:47.684Z,94.98
2017-03-05T03:26:57.129Z,95.84
2017-03-05T03:28:07.345Z,96.22
2017-03-05T03:29:16.817Z,95.46
2017-03-05T03:30:25.911Z,94.56
2017-03-05T03:31:35.351Z,94.46
2017-03-05T03:32:44.805Z,94.84
2017-03-05T03:33:54.638Z,94.56
2017-03-05T03:35:03.716Z,94.37
2017-03-05T03:36:12.408Z,95.03
2017-03-05T03:37:21.890Z,94.74
2017-03-05T03:38:30.966Z,94.65
2017-03-05T03:39:40.433Z,94.08
2017-03-05T03:40:50.663Z,94.56
2017-03-05T03:42:00.120Z,94.37
2017-03-05T03:43:10.366Z,94.37
2017-03-05T03:44:19.425Z,95.22
2017-03-05T03:45:29.249Z,95.6
2017-03-05T03:46:38.739Z,95.89
2017-03-05T03:47:49.008Z,95.51
2017-03-05T03:48:58.107Z,95.17
2017-03-05T03:50:07.195Z,95.36
2017-03-05T03:51:16.282Z,95.12
2017-03-05T03:52:25.769Z,94.32
2017-03-05T03:53:35.222Z,94.65
2017-03-05T03:54:45.061Z,94.46
2017-03-05T03:55:54.508Z,93.99
2017-03-05T03:57:04.717Z,94.65
2017-03-05T03:58:14.164Z,94.27
2017-03-05T03:59:23.641Z,94.08
2017-03-05T04:00:33.117Z,93.7
2017-03-05T04:01:42.178Z,93.51
2017-03-05T04:02:51.626Z,93.7
2017-03-05T04:04:01.097Z,94.08
2017-03-05T04:05:11.309Z,93.6
2017-03-05T04:06:20.405Z,93.51
2017-03-05T04:07:29.846Z,93.89
2017-03-05T04:08:38.916Z,94.08
2017-03-05T04:09:49.135Z,93.7
2017-03-05T04:10:58.596Z,93.8
2017-03-05T04:12:08.849Z,93.7
2017-03-05T04:13:18.319Z,94.27
2017-03-05T04:14:27.033Z,94.56
2017-03-05T04:15:36.106Z,94.93
2017-03-05T04:16:45.548Z,95.41
2017-03-05T04:17:54.996Z,94.74
2017-03-05T04:19:05.225Z,94.37
2017-03-05T04:20:14.297Z,94.74
2017-03-05T04:21:23.752Z,93.99
2017-03-05T04:22:32.442Z,93.6
2017-03-05T04:23:42.304Z,93.99
2017-03-05T04:24:51.010Z,93.89
2017-03-05T04:26:00.865Z,93.7
2017-03-05T04:27:10.685Z,93.6
2017-03-05T04:28:19.395Z,93.8
2017-03-05T04:29:28.491Z,93.99
2017-03-05T04:30:37.972Z,93.7
2017-03-05T04:31:48.204Z,93.32
2017-03-05T04:32:56.904Z,93.32
2017-03-05T04:34:07.118Z,93.23
2017-03-05T04:35:15.814Z,93.32
2017-03-05T04:36:26.414Z,92.94
2017-03-05T04:37:35.871Z,93.04
2017-03-05T04:38:45.335Z,93.23
2017-03-05T04:39:54.436Z,93.13
2017-03-05T04:41:04.275Z,93.13
2017-03-05T04:42:13.361Z,93.51
2017-03-05T04:43:22.808Z,93.8
2017-03-05T04:44:32.281Z,93.6
2017-03-05T04:45:42.139Z,92.94
2017-03-05T04:46:51.981Z,93.04
2017-03-05T04:48:01.430Z,92.75
2017-03-05T04:49:10.146Z,93.04
2017-03-05T04:50:19.208Z,93.41
2017-03-05T04:51:28.285Z,93.89
2017-03-05T04:52:38.175Z,93.7
2017-03-05T04:53:48.038Z,93.89
2017-03-05T04:54:57.499Z,93.32
2017-03-05T04:56:06.587Z,93.51
2017-03-05T04:57:15.657Z,93.6
2017-03-05T04:58:25.491Z,93.8
2017-03-05T04:59:35.318Z,93.13
2017-03-05T05:00:44.781Z,93.41
2017-03-05T05:01:54.220Z,92.37
2017-03-05T05:03:03.670Z,92.85
2017-03-05T05:04:13.892Z,92.85
2017-03-05T05:05:23.357Z,92.37
2017-03-05T05:06:32.439Z,91.99
2017-03-05T05:07:41.917Z,91.99
2017-03-05T05:08:51.373Z,92.47
2017-03-05T05:10:01.207Z,92.09
2017-03-05T05:11:11.039Z,91.42
2017-03-05T05:12:20.123Z,91.8
2017-03-05T05:13:29.588Z,91.71
2017-03-05T05:14:38.663Z,91.42
2017-03-05T05:15:47.746Z,91.71
2017-03-05T05:16:56.826Z,91.89
2017-03-05T05:18:05.909Z,91.99
2017-03-05T05:19:15.361Z,92.28
2017-03-05T05:20:24.823Z,91.71
2017-03-05T05:21:33.873Z,92.09
2017-03-05T05:22:43.342Z,91.71
2017-03-05T05:23:53.184Z,91.89
2017-03-05T05:25:03.029Z,92.66
2017-03-05T05:26:12.491Z,92.94
2017-03-05T05:27:21.931Z,92.66
2017-03-05T05:28:31.387Z,93.23
2017-03-05T05:29:40.853Z,93.23
2017-03-05T05:30:49.920Z,94.27
2017-03-05T05:31:59.374Z,93.51
2017-03-05T05:33:09.241Z,93.13
2017-03-05T05:34:18.328Z,93.13
2017-03-05T05:35:27.407Z,93.13
2017-03-05T05:36:36.107Z,92.47
2017-03-05T05:37:45.974Z,92.56
2017-03-05T05:38:55.076Z,92.66
2017-03-05T05:40:04.171Z,92.75
2017-03-05T05:41:13.249Z,92.56
2017-03-05T05:42:23.084Z,92.85
2017-03-05T05:43:32.921Z,91.99
2017-03-05T05:44:42.366Z,91.71
2017-03-05T05:45:51.811Z,91.99
2017-03-05T05:47:00.519Z,91.99
2017-03-05T05:48:09.973Z,91.89
2017-03-05T05:49:19.055Z,91.14
2017-03-05T05:50:28.899Z,91.14
2017-03-05T05:51:38.377Z,90.57
2017-03-05T05:52:47.823Z,90.38
2017-03-05T05:53:56.893Z,91.24
2017-03-05T05:55:06.740Z,90.38
2017-03-05T05:56:16.204Z,90.33
2017-03-05T05:57:26.056Z,90.33
2017-03-05T05:58:35.511Z,90.61
2017-03-05T05:59:44.965Z,90.42
2017-03-05T06:00:54.428Z,89.62
2017-03-05T06:02:04.282Z,90.33
2017-03-05T06:03:14.140Z,90.05
2017-03-05T06:04:23.592Z,90.23
2017-03-05T06:05:33.810Z,89.57
2017-03-05T06:06:43.265Z,89.47
2017-03-05T06:07:52.331Z,90.8
2017-03-05T06:09:02.161Z,90.52
2017-03-05T06:10:11.604Z,90.71
2017-03-05T06:11:21.090Z,90.99
2017-03-05T06:12:30.919Z,91.47
2017-03-05T06:13:40.384Z,91.19
2017-03-05T06:14:50.594Z,90.8
2017-03-05T06:16:00.066Z,90.05
2017-03-05T06:17:09.907Z,90.14
2017-03-05T06:18:19.002Z,88.81
2017-03-05T06:19:28.463Z,89
2017-03-05T06:20:37.145Z,89.47
2017-03-05T06:21:47.369Z,90.33
2017-03-05T06:22:56.085Z,90.23
2017-03-05T06:24:05.922Z,90.23
2017-03-05T06:25:15.374Z,89.47
2017-03-05T06:26:24.458Z,89.67
2017-03-05T06:27:33.908Z,90.14
2017-03-05T06:28:43.771Z,90.14
2017-03-05T06:29:53.616Z,89.76
2017-03-05T06:31:03.452Z,90.23
2017-03-05T06:32:13.675Z,89.95
2017-03-05T06:33:22.749Z,90.23
2017-03-05T06:34:31.838Z,90.33
2017-03-05T06:35:41.684Z,90.52
2017-03-05T06:36:51.918Z,90.71
2017-03-05T06:38:00.982Z,90.61
2017-03-05T06:39:10.066Z,90.42
2017-03-05T06:40:19.531Z,90.61
2017-03-05T06:41:28.603Z,89.28
2017-03-05T06:42:38.068Z,88.81
2017-03-05T06:43:47.534Z,89.47
2017-03-05T06:44:57.003Z,89.19
2017-03-05T06:46:06.871Z,88.9
2017-03-05T06:47:16.332Z,88.71
2017-03-05T06:48:25.411Z,89.47
2017-03-05T06:49:34.886Z,88.81
2017-03-05T06:50:43.947Z,89.67
2017-03-05T06:51:53.800Z,90.05
2017-03-05T06:53:04.049Z,90.23
2017-03-05T06:54:13.495Z,89.57
2017-03-05T06:55:23.021Z,89.09
2017-03-05T06:56:32.476Z,88.81
2017-03-05T06:57:42.341Z,88.34
2017-03-05T06:58:51.788Z,88.53
2017-03-05T07:00:01.256Z,89
2017-03-05T07:01:11.105Z,88.24
2017-03-05T07:02:20.561Z,89.19
2017-03-05T07:03:30.401Z,90.05
2017-03-05T07:04:40.265Z,90.42
2017-03-05T07:05:50.092Z,90.33
2017-03-05T07:06:59.919Z,90.99
2017-03-05T07:08:09.381Z,90.42
2017-03-05T07:09:18.466Z,90.23
2017-03-05T07:10:27.932Z,89.09
2017-03-05T07:11:37.385Z,89
2017-03-05T07:12:47.626Z,88.43
2017-03-05T07:13:57.466Z,88.62
2017-03-05T07:15:07.306Z,88.34
2017-03-05T07:16:17.135Z,88.62
2017-03-05T07:17:25.845Z,88.62
2017-03-05T07:18:35.311Z,87.67
2017-03-05T07:19:44.007Z,87.57
2017-03-05T07:20:54.240Z,88.43
2017-03-05T07:22:04.083Z,88.62
2017-03-05T07:23:13.153Z,87.76
2017-03-05T07:24:22.979Z,88.53
2017-03-05T07:25:32.453Z,88.05
2017-03-05T07:26:42.293Z,88.24
2017-03-05T07:27:51.787Z,88.53
2017-03-05T07:29:01.628Z,87.86
2017-03-05T07:30:11.468Z,88.76
2017-03-05T07:31:20.140Z,88.28
2017-03-05T07:32:29.223Z,88.67
2017-03-05T07:33:37.934Z,88
2017-03-05T07:34:47.811Z,88.28
2017-03-05T07:35:56.873Z,87.24
2017-03-05T07:37:06.728Z,87.43
2017-03-05T07:38:16.196Z,86.76
2017-03-05T07:39:26.037Z,86.86
2017-03-05T07:40:35.506Z,87.24
2017-03-05T07:41:44.985Z,88.38
2017-03-05T07:42:54.453Z,86.76
2017-03-05T07:44:03.170Z,87.52
2017-03-05T07:45:12.630Z,87.34
2017-03-05T07:46:21.717Z,86.1
2017-03-05T07:47:31.186Z,86.38
2017-03-05T07:48:40.645Z,86.38
2017-03-05T07:49:50.860Z,86.76
2017-03-05T07:50:59.937Z,87.52
2017-03-05T07:52:09.023Z,87.9
2017-03-05T07:53:18.861Z,87.81
2017-03-05T07:54:28.309Z,87.9
2017-03-05T07:55:37.772Z,88.28
2017-03-05T07:56:46.860Z,86.76
2017-03-05T07:57:56.700Z,87.24
2017-03-05T07:59:06.582Z,87.24
2017-03-05T08:00:16.032Z,86.47
2017-03-05T08:01:25.117Z,87.24
2017-03-05T08:02:34.202Z,86.19
2017-03-05T08:03:43.656Z,86.76
2017-03-05T08:04:53.929Z,87.76
2017-03-05T08:06:04.174Z,86.33
2017-03-05T08:07:13.682Z,85.86
2017-03-05T08:08:22.768Z,85.76
2017-03-05T08:09:32.245Z,84.91
2017-03-05T08:10:42.107Z,86.52
2017-03-05T08:11:51.960Z,86.9
2017-03-05T08:13:01.789Z,84.81
2017-03-05T08:14:11.233Z,84.62
2017-03-05T08:15:20.698Z,84.91
2017-03-05T08:16:30.158Z,84.14
2017-03-05T08:17:39.268Z,83.48
2017-03-05T08:18:49.124Z,83.86
2017-03-05T08:19:59.345Z,84.72
2017-03-05T08:21:09.182Z,84.62
2017-03-05T08:22:18.259Z,84.62
2017-03-05T08:23:27.714Z,83.48
2017-03-05T08:24:36.823Z,84.95
2017-03-05T08:25:46.314Z,82.67
2017-03-05T08:26:55.414Z,82.81
2017-03-05T08:28:04.499Z,83.76
2017-03-05T08:29:13.961Z,83.1
2017-03-05T08:30:23.040Z,82.24
2017-03-05T08:31:33.273Z,82.15
2017-03-05T08:32:43.107Z,82.15
2017-03-05T08:33:53.351Z,82.62
2017-03-05T08:35:02.430Z,83.95
2017-03-05T08:36:11.123Z,83.86
2017-03-05T08:37:20.583Z,83.39
2017-03-05T08:38:29.663Z,81.67
2017-03-05T08:39:39.499Z,82.15
2017-03-05T08:40:49.727Z,82.15
2017-03-05T08:41:59.170Z,82.62
2017-03-05T08:43:08.277Z,82.81
2017-03-05T08:44:18.115Z,82.81
2017-03-05T08:45:27.966Z,83.58
2017-03-05T08:46:37.082Z,82.91
2017-03-05T08:47:46.558Z,83.67
2017-03-05T08:48:56.012Z,83.67
2017-03-05T08:50:05.851Z,82.81
2017-03-05T08:51:15.316Z,82.71
2017-03-05T08:52:25.168Z,83.39
2017-03-05T08:53:35.014Z,83.67
2017-03-05T08:54:44.472Z,83.95
2017-03-05T08:55:53.932Z,83.86
2017-03-05T08:57:03.764Z,82.15
2017-03-05T08:58:13.614Z,82.24
2017-03-05T08:59:22.686Z,81.62
2017-03-05T09:00:32.147Z,80.91
2017-03-05T09:01:41.618Z,81.9
2017-03-05T09:02:51.468Z,81.62
2017-03-05T09:04:00.934Z,82.95
2017-03-05T09:05:10.826Z,80.1
2017-03-05T09:06:19.521Z,80.57
2017-03-05T09:07:28.984Z,80.57
2017-03-05T09:08:39.603Z,80.86
2017-03-05T09:09:49.069Z,81.33
2017-03-05T09:10:57.774Z,80.29
2017-03-05T09:12:07.650Z,81.09
2017-03-05T09:13:16.730Z,80.71
2017-03-05T09:14:26.224Z,80.61
2017-03-05T09:15:35.672Z,81.18
2017-03-05T09:16:45.136Z,80.23
2017-03-05T09:17:53.842Z,79.94
2017-03-05T09:19:04.089Z,79.47
2017-03-05T09:20:13.169Z,80.33
2017-03-05T09:21:22.641Z,79.47
2017-03-05T09:22:31.721Z,79.94
2017-03-05T09:23:41.173Z,80.33
2017-03-05T09:24:50.247Z,79.19
2017-03-05T09:25:58.942Z,78.52
2017-03-05T09:27:08.407Z,79.28
2017-03-05T09:28:17.488Z,80.33
2017-03-05T09:29:26.565Z,77.95
2017-03-05T09:30:36.034Z,75.76
2017-03-05T09:31:44.742Z,75.47
2017-03-05T09:32:53.815Z,74.43
2017-03-05T09:34:03.284Z,75.28
2017-03-05T09:35:12.774Z,74.33
2017-03-05T09:36:21.883Z,75.13
2017-03-05T09:37:31.349Z,74.65
2017-03-05T09:38:41.198Z,74.12
2017-03-05T09:39:51.049Z,73.83
2017-03-05T09:41:00.132Z,72.72
2017-03-05T09:42:09.603Z,73.11
2017-03-05T09:43:18.709Z,71.77
2017-03-05T09:44:28.557Z,71.11
2017-03-05T09:45:38.021Z,71.48
2017-03-05T09:46:47.490Z,71.48
2017-03-05T09:47:56.957Z,71.33
2017-03-05T09:49:06.434Z,71.33
2017-03-05T09:50:15.152Z,71.52
2017-03-05T09:51:24.622Z,71.04
2017-03-05T09:52:34.088Z,69.33
2017-03-05T09:53:43.196Z,69.23
2017-03-05T09:54:53.472Z,69.62
2017-03-05T09:56:03.710Z,69.52
2017-03-05T09:57:12.800Z,69.81
2017-03-05T09:58:21.882Z,69.62
2017-03-05T09:59:30.981Z,70.44
2017-03-05T10:00:40.434Z,70.53
2017-03-05T10:01:49.906Z,69.68
2017-03-05T10:02:58.995Z,68.47
2017-03-05T10:04:08.462Z,68.95
2017-03-05T10:05:17.947Z,69.56
2017-03-05T10:06:27.055Z,68.41
2017-03-05T10:07:36.142Z,67.27
2017-03-05T10:08:45.636Z,66.06
2017-03-05T10:09:55.102Z,66.5
2017-03-05T10:11:04.188Z,66.85
2017-03-05T10:12:13.666Z,67.99
2017-03-05T10:13:23.131Z,69.29
2017-03-05T10:14:32.586Z,69.2
2017-03-05T10:15:42.065Z,69.58
2017-03-05T10:16:51.526Z,69.14
2017-03-05T10:18:00.596Z,69.48
2017-03-05T10:19:09.296Z,69.68
2017-03-05T10:20:18.757Z,68.66
2017-03-05T10:21:28.601Z,65.93
2017-03-05T10:22:37.690Z,65.17
2017-03-05T10:23:47.567Z,62.05
2017-03-05T10:24:57.424Z,61.57
2017-03-05T10:26:07.641Z,63.2
2017-03-05T10:27:17.510Z,64.43
2017-03-05T10:28:26.964Z,62.24
2017-03-05T10:29:36.417Z,63.39
2017-03-05T10:30:45.493Z,64.59
2017-03-05T10:31:54.988Z,63.92
2017-03-05T10:33:04.457Z,63.39
2017-03-05T10:34:14.291Z,64.12
2017-03-05T10:35:24.543Z,63.48
2017-03-05T10:36:34.015Z,64.15
2017-03-05T10:37:43.910Z,63.1
2017-03-05T10:38:53.387Z,62.62
2017-03-05T10:40:02.884Z,60.33
2017-03-05T10:41:12.722Z,59.22
2017-03-05T10:42:21.812Z,61.19
2017-03-05T10:43:30.880Z,59.47
2017-03-05T10:44:40.357Z,61.73
2017-03-05T10:45:49.830Z,62.94
2017-03-05T10:46:59.324Z,63.96
2017-03-05T10:48:08.803Z,65.86
2017-03-05T10:49:19.043Z,66.34
2017-03-05T10:50:28.526Z,66.09
2017-03-05T10:51:38.758Z,66.24
2017-03-05T10:52:49.010Z,65.1
2017-03-05T10:53:58.089Z,65.67
2017-03-05T10:55:07.934Z,66.59
2017-03-05T10:56:17.388Z,67.35
2017-03-05T10:57:26.476Z,66.11
2017-03-05T10:58:36.321Z,65.39
2017-03-05T10:59:46.167Z,65.13
2017-03-05T11:00:55.251Z,62.21
2017-03-05T11:02:05.465Z,59.88
2017-03-05T11:03:14.560Z,58.36
2017-03-05T11:04:23.665Z,59.12
2017-03-05T11:05:32.745Z,59.28
2017-03-05T11:06:41.448Z,61.07
2017-03-05T11:07:50.902Z,61.89
2017-03-05T11:09:00.749Z,64.15
2017-03-05T11:10:09.844Z,64.15
2017-03-05T11:11:18.943Z,63.57
2017-03-05T11:12:28.406Z,62.05
2017-03-05T11:13:38.243Z,59.89
2017-03-05T11:14:48.112Z,56.51
2017-03-05T11:15:58.354Z,53.67
2017-03-05T11:17:08.205Z,52.36
2017-03-05T11:18:17.288Z,50.84
2017-03-05T11:19:26.774Z,50
2017-03-05T11:20:36.240Z,50.95
2017-03-05T11:21:46.078Z,50.29
2017-03-05T11:22:55.169Z,50.76
2017-03-05T11:24:04.657Z,50.93
2017-03-05T11:25:13.774Z,50.84
2017-03-05T11:26:23.246Z,51.03
2017-03-05T11:27:33.094Z,52.65
2017-03-05T11:28:42.560Z,51.79
2017-03-05T11:29:51.643Z,53.61
2017-03-05T11:31:01.156Z,56.45
2017-03-05T11:32:10.622Z,59.92
2017-03-05T11:33:20.857Z,60.94
2017-03-05T11:34:30.320Z,59.03
2017-03-05T11:35:39.787Z,60.14
2017-03-05T11:36:48.875Z,59.38
2017-03-05T11:37:58.338Z,57.89
2017-03-05T11:39:08.195Z,54.86
2017-03-05T11:40:18.084Z,52.59
2017-03-05T11:41:27.930Z,51.57
2017-03-05T11:42:37.792Z,50.14
2017-03-05T11:43:46.892Z,51.54
2017-03-05T11:44:55.980Z,52.69
2017-03-05T11:46:05.857Z,54.96
2017-03-05T11:47:16.106Z,56.36
2017-03-05T11:48:25.584Z,56.46
2017-03-05T11:49:34.676Z,57.7
2017-03-05T11:50:44.163Z,57.31
2017-03-05T11:51:53.249Z,57.12
2017-03-05T11:53:02.331Z,57.41
2017-03-05T11:54:12.548Z,59.19
2017-03-05T11:55:21.632Z,57.67
2017-03-05T11:56:31.477Z,57.31
2017-03-05T11:57:40.932Z,57.76
2017-03-05T11:58:50.796Z,58.04
2017-03-05T12:00:00.285Z,59.09
2017-03-05T12:01:09.398Z,59.57
2017-03-05T12:02:18.109Z,60.33
2017-03-05T12:03:27.605Z,60.52
2017-03-05T12:04:37.074Z,60.62
2017-03-05T12:05:46.540Z,59.76
2017-03-05T12:06:56.033Z,58.26
2017-03-05T12:08:05.116Z,57.12
2017-03-05T12:09:14.943Z,57.31
2017-03-05T12:10:24.397Z,55.6
2017-03-05T12:11:34.243Z,55.79
2017-03-05T12:12:43.735Z,54.64
2017-03-05T12:13:52.824Z,55.12
2017-03-05T12:15:02.320Z,54.55
2017-03-05T12:16:11.820Z,54.43
2017-03-05T12:17:20.903Z,55
2017-03-05T12:18:31.152Z,55.02
2017-03-05T12:19:40.626Z,55.6
2017-03-05T12:20:49.701Z,56.17
2017-03-05T12:21:58.408Z,54.74
2017-03-05T12:23:07.875Z,54.93
2017-03-05T12:24:17.325Z,56.65
2017-03-05T12:25:26.784Z,53.78
2017-03-05T12:26:36.247Z,54.55
2017-03-05T12:27:45.710Z,54.83
2017-03-05T12:28:55.192Z,53.21
2017-03-05T12:30:05.427Z,53.21
2017-03-05T12:31:14.876Z,53.59
2017-03-05T12:32:24.717Z,55.02
2017-03-05T12:33:34.943Z,53.97
2017-03-05T12:34:44.798Z,55.31
2017-03-05T12:35:55.037Z,54.26
2017-03-05T12:37:04.512Z,53.88
2017-03-05T12:38:14.007Z,54.74
2017-03-05T12:39:23.465Z,53.43
2017-03-05T12:40:33.334Z,53.43
2017-03-05T12:41:43.185Z,54.96
2017-03-05T12:42:53.037Z,54.48
2017-03-05T12:44:03.248Z,53.43
2017-03-05T12:45:12.360Z,52.76
2017-03-05T12:46:22.612Z,53.33
2017-03-05T12:47:32.082Z,52.67
2017-03-05T12:48:41.581Z,53.5
2017-03-05T12:49:51.448Z,54.26
2017-03-05T12:51:00.925Z,53.97
2017-03-05T12:52:11.159Z,54.74
2017-03-05T12:53:21.378Z,55.02
2017-03-05T12:54:30.848Z,55.02
2017-03-05T12:55:40.304Z,55.98
2017-03-05T12:56:49.791Z,55.88
2017-03-05T12:57:59.263Z,56.36
2017-03-05T12:59:09.125Z,55.88
2017-03-05T13:00:19.402Z,55.69
2017-03-05T13:01:29.273Z,55.41
2017-03-05T13:02:38.361Z,55.88
2017-03-05T13:03:48.583Z,55.76
2017-03-05T13:04:58.037Z,54.93
2017-03-05T13:06:07.133Z,54.71
2017-03-05T13:07:17.004Z,55.38
2017-03-05T13:08:26.911Z,56.71
2017-03-05T13:09:36.411Z,56.26
2017-03-05T13:10:46.624Z,55.88
2017-03-05T13:11:56.093Z,56.07
2017-03-05T13:13:05.203Z,57.6
2017-03-05T13:14:15.450Z,57.5
2017-03-05T13:15:24.894Z,55.79
2017-03-05T13:16:34.751Z,53.5
2017-03-05T13:17:43.848Z,54.36
2017-03-05T13:18:53.702Z,55.5
2017-03-05T13:20:02.778Z,55.05
2017-03-05T13:21:12.231Z,54.86
2017-03-05T13:22:21.757Z,54.77
2017-03-05T13:23:31.985Z,53.24
2017-03-05T13:24:41.071Z,53.43
2017-03-05T13:25:50.561Z,54.1
2017-03-05T13:27:00.032Z,54.48
2017-03-05T13:28:09.503Z,52.19
2017-03-05T13:29:19.337Z,51.71
2017-03-05T13:30:28.424Z,52.38
2017-03-05T13:31:37.125Z,52.95
2017-03-05T13:32:46.221Z,52.88
2017-03-05T13:33:56.072Z,52.98
2017-03-05T13:35:05.566Z,52.03
2017-03-05T13:36:15.037Z,49.93
2017-03-05T13:37:24.504Z,48.97
2017-03-05T13:38:33.583Z,48.02
2017-03-05T13:39:43.046Z,48.3
2017-03-05T13:40:52.881Z,49.33
2017-03-05T13:42:01.992Z,51.12
2017-03-05T13:43:12.209Z,51.68
2017-03-05T13:44:22.060Z,51.78
2017-03-05T13:45:31.933Z,50.45
2017-03-05T13:46:40.622Z,51.88
2017-03-05T13:47:49.751Z,53.72
2017-03-05T13:48:58.819Z,52.86
2017-03-05T13:50:07.904Z,51.33
2017-03-05T13:51:17.387Z,51.14
2017-03-05T13:52:27.255Z,51.52
2017-03-05T13:53:36.723Z,52.09
2017-03-05T13:54:45.417Z,51.71
2017-03-05T13:55:55.270Z,51.23
2017-03-05T13:57:04.369Z,51.43
2017-03-05T13:58:14.218Z,51.71
2017-03-05T13:59:23.319Z,50.67
2017-03-05T14:00:32.388Z,49.99
2017-03-05T14:01:42.618Z,49.73
2017-03-05T14:02:52.104Z,49.26
2017-03-05T14:04:01.579Z,49.83
2017-03-05T14:05:11.033Z,48.57
2017-03-05T14:06:20.133Z,47.99
2017-03-05T14:07:29.598Z,48.85
2017-03-05T14:08:39.065Z,49.33
2017-03-05T14:09:48.521Z,49.23
2017-03-05T14:10:57.970Z,49.9
2017-03-05T14:12:07.426Z,49.23
2017-03-05T14:13:16.871Z,51.02
2017-03-05T14:14:25.966Z,51.31
2017-03-05T14:15:35.441Z,51.21
2017-03-05T14:16:44.519Z,51.88
2017-03-05T14:17:54.005Z,51.59
2017-03-05T14:19:03.473Z,51.02
2017-03-05T14:20:12.950Z,52.07
2017-03-05T14:21:22.432Z,52.83
2017-03-05T14:22:31.894Z,53.41
2017-03-05T14:23:40.969Z,54.36
2017-03-05T14:24:50.820Z,54.43
2017-03-05T14:26:00.684Z,53.66
2017-03-05T14:27:10.133Z,52.71
2017-03-05T14:28:19.619Z,52.8
2017-03-05T14:29:29.875Z,53.76
2017-03-05T14:30:38.954Z,54.04
2017-03-05T14:31:48.045Z,55.19
2017-03-05T14:32:57.883Z,56.04
2017-03-05T14:34:07.349Z,57.82
2017-03-05T14:35:16.820Z,57.64
2017-03-05T14:36:25.526Z,59.83
2017-03-05T14:37:35.394Z,62.94
2017-03-05T14:38:45.634Z,64.37
2017-03-05T14:39:55.897Z,65.95
2017-03-05T14:41:05.357Z,66.14
2017-03-05T14:42:14.811Z,68.43
2017-03-05T14:43:24.287Z,69.76
2017-03-05T14:44:33.732Z,70.14
2017-03-05T14:45:42.822Z,71.47
2017-03-05T14:46:51.895Z,71.72
2017-03-05T14:48:01.358Z,72.11
2017-03-05T14:49:11.595Z,72.86
2017-03-05T14:50:21.045Z,74.39
2017-03-05T14:51:29.734Z,74.39
2017-03-05T14:52:38.837Z,74.92
2017-03-05T14:53:48.324Z,75.87
2017-03-05T14:54:57.419Z,74.82
2017-03-05T14:56:07.244Z,76.25
2017-03-05T14:57:16.723Z,77.39